createdAt,value
2022-11-16T00:01:02.743Z,99693.72
2022-11-16T00:03:30.447Z,99688.44
2022-11-16T00:05:57.995Z,99690.91
2022-11-16T00:08:24.778Z,99693.50
2022-11-16T00:10:51.457Z,99689.22
2022-11-16T00:13:17.995Z,99685.84
2022-11-16T00:15:44.521Z,99685.06
2022-11-16T00:18:11.029Z,99679.94
2022-11-16T00:20:38.461Z,99676.56
2022-11-16T00:23:07.790Z,99673.09
2022-11-16T00:25:37.363Z,99678.38
2022-11-16T00:28:06.298Z,99675.78
2022-11-16T00:30:34.839Z,99673.22
2022-11-16T00:33:04.896Z,99671.50
2022-11-16T00:35:33.793Z,99662.00
2022-11-16T00:38:00.308Z,99661.19
2022-11-16T00:40:29.382Z,99652.56
2022-11-16T00:42:55.916Z,99642.19
2022-11-16T00:45:25.119Z,99644.78
2022-11-16T00:48:00.257Z,99643.91
2022-11-16T00:50:34.757Z,99632.66
2022-11-16T00:53:07.837Z,99637.00
2022-11-16T00:55:37.658Z,99634.44
2022-11-16T00:58:06.425Z,99631.78
2022-11-16T01:00:32.952Z,99627.31
2022-11-16T01:03:01.897Z,99628.19
2022-11-16T01:05:28.573Z,99628.22
2022-11-16T01:07:55.510Z,99622.22
2022-11-16T01:10:25.370Z,99621.41
2022-11-16T01:12:56.617Z,99615.28
2022-11-16T01:15:26.848Z,99616.16
2022-11-16T01:17:54.292Z,99608.38
2022-11-16T01:20:23.798Z,99605.78
2022-11-16T01:22:50.401Z,99599.66
2022-11-16T01:25:16.977Z,99603.91
2022-11-16T01:27:43.871Z,99598.78
2022-11-16T01:30:21.882Z,99599.66
2022-11-16T01:32:58.726Z,99595.34
2022-11-16T01:35:28.318Z,99592.78
2022-11-16T01:37:54.945Z,99587.59
2022-11-16T01:40:24.036Z,99584.16
2022-11-16T01:42:50.647Z,99571.97
2022-11-16T01:45:26.158Z,99574.50
2022-11-16T01:47:55.798Z,99570.09
2022-11-16T01:50:26.737Z,99559.66
2022-11-16T01:53:02.572Z,99562.97
2022-11-16T01:55:34.894Z,99555.94
2022-11-16T01:58:15.934Z,99554.13
2022-11-16T02:00:42.659Z,99547.22
2022-11-16T02:03:29.468Z,99555.94
2022-11-16T02:06:02.854Z,99551.69
2022-11-16T02:09:04.528Z,99541.31
2022-11-16T02:11:40.312Z,99540.50
2022-11-16T02:14:29.456Z,99538.84
2022-11-16T02:17:04.305Z,99544.16
2022-11-16T02:19:51.471Z,99534.66
2022-11-16T02:22:38.689Z,99532.03
2022-11-16T02:25:08.880Z,99523.34
2022-11-16T02:27:54.242Z,99518.16
2022-11-16T02:30:22.305Z,99519.03
2022-11-16T02:32:57.234Z,99517.31
2022-11-16T02:35:31.589Z,99509.59
2022-11-16T02:38:11.305Z,99516.53
2022-11-16T02:40:38.569Z,99510.44
2022-11-16T02:43:06.856Z,99506.94
2022-11-16T02:45:42.173Z,99506.94
2022-11-16T02:48:10.749Z,99501.84
2022-11-16T02:50:39.915Z,99497.53
2022-11-16T02:53:06.471Z,99494.13
2022-11-16T02:55:34.829Z,99499.31
2022-11-16T02:58:02.037Z,99491.47
2022-11-16T03:00:53.097Z,99488.75
2022-11-16T03:03:29.899Z,99491.34
2022-11-16T03:06:00.299Z,99476.63
2022-11-16T03:08:32.492Z,99482.56
2022-11-16T03:11:25.536Z,99483.44
2022-11-16T03:13:55.750Z,99475.72
2022-11-16T03:16:23.776Z,99480.03
2022-11-16T03:18:50.366Z,99472.31
2022-11-16T03:21:35.743Z,99472.44
2022-11-16T03:24:04.933Z,99474.13
2022-11-16T03:26:33.429Z,99469.69
2022-11-16T03:29:06.730Z,99469.59
2022-11-16T03:31:35.135Z,99467.81
2022-11-16T03:34:06.274Z,99463.50
2022-11-16T03:36:36.961Z,99466.13
2022-11-16T03:39:05.385Z,99453.25
2022-11-16T03:41:36.366Z,99454.09
2022-11-16T03:44:05.387Z,99455.84
2022-11-16T03:46:31.924Z,99452.41
2022-11-16T03:48:59.390Z,99442.06
2022-11-16T03:51:29.360Z,99441.31
2022-11-16T03:53:56.739Z,99433.53
2022-11-16T03:56:23.497Z,99443.97
2022-11-16T03:58:52.305Z,99443.16
2022-11-16T04:01:18.914Z,99435.38
2022-11-16T04:03:47.296Z,99430.13
2022-11-16T04:06:36.384Z,99430.06
2022-11-16T04:09:28.842Z,99434.44
2022-11-16T04:12:17.020Z,99424.88
2022-11-16T04:15:02.472Z,99417.19
2022-11-16T04:17:50.009Z,99412.00
2022-11-16T04:20:35.303Z,99406.03
2022-11-16T04:23:23.958Z,99406.03
2022-11-16T04:25:51.464Z,99407.81
2022-11-16T04:28:22.587Z,99405.22
2022-11-16T04:31:17.694Z,99405.31
2022-11-16T04:34:10.808Z,99399.22
2022-11-16T04:36:59.973Z,99403.53
2022-11-16T04:39:28.116Z,99390.56
2022-11-16T04:42:13.432Z,99395.75
2022-11-16T04:44:59.388Z,99399.22
2022-11-16T04:47:31.169Z,99392.34
2022-11-16T04:49:57.744Z,99390.63
2022-11-16T04:52:24.997Z,99394.94
2022-11-16T04:54:53.615Z,99386.25
2022-11-16T04:57:21.482Z,99386.25
2022-11-16T04:59:49.444Z,99388.84
2022-11-16T05:02:18.859Z,99383.66
2022-11-16T05:04:52.766Z,99383.66
2022-11-16T05:07:23.149Z,99391.50
2022-11-16T05:09:55.460Z,99382.88
2022-11-16T05:12:27.036Z,99386.34
2022-11-16T05:14:59.952Z,99383.81
2022-11-16T05:17:29.723Z,99383.81
2022-11-16T05:20:17.466Z,99384.66
2022-11-16T05:22:56.960Z,99378.63
2022-11-16T05:25:26.266Z,99382.97
2022-11-16T05:27:53.731Z,99382.09
2022-11-16T05:30:23.150Z,99376.03
2022-11-16T05:32:52.207Z,99369.16
2022-11-16T05:35:20.419Z,99355.25
2022-11-16T05:37:47.001Z,99361.25
2022-11-16T05:40:16.347Z,99349.09
2022-11-16T05:42:57.720Z,99355.09
2022-11-16T05:45:25.919Z,99351.66
2022-11-16T05:47:52.503Z,99343.91
2022-11-16T05:50:23.956Z,99345.69
2022-11-16T05:53:03.555Z,99343.94
2022-11-16T05:55:30.133Z,99336.16
2022-11-16T05:57:56.722Z,99336.13
2022-11-16T06:00:25.676Z,99330.84
2022-11-16T06:02:58.552Z,99336.03
2022-11-16T06:05:29.415Z,99336.94
2022-11-16T06:07:59.032Z,99330.84
2022-11-16T06:10:26.151Z,99330.84
2022-11-16T06:12:53.684Z,99333.47
2022-11-16T06:15:26.286Z,99323.09
2022-11-16T06:18:00.204Z,99326.66
2022-11-16T06:20:33.627Z,99323.25
2022-11-16T06:23:00.786Z,99333.63
2022-11-16T06:25:30.890Z,99335.38
2022-11-16T06:28:01.911Z,99338.88
2022-11-16T06:30:32.188Z,99339.72
2022-11-16T06:32:58.868Z,99342.34
2022-11-16T06:35:27.879Z,99338.06
2022-11-16T06:37:55.458Z,99330.22
2022-11-16T06:40:25.461Z,99335.41
2022-11-16T06:42:54.443Z,99324.16
2022-11-16T06:45:21.006Z,99320.75
2022-11-16T06:47:51.282Z,99329.41
2022-11-16T06:50:19.312Z,99314.69
2022-11-16T06:52:46.923Z,99321.66
2022-11-16T06:55:13.706Z,99310.50
2022-11-16T06:57:42.464Z,99308.78
2022-11-16T07:00:10.524Z,99308.78
2022-11-16T07:02:38.064Z,99302.75
2022-11-16T07:05:10.905Z,99302.75
2022-11-16T07:07:38.747Z,99308.88
2022-11-16T07:10:07.886Z,99306.31
2022-11-16T07:12:36.083Z,99299.38
2022-11-16T07:15:05.078Z,99296.84
2022-11-16T07:17:33.542Z,99303.78
2022-11-16T07:20:00.425Z,99295.09
2022-11-16T07:22:28.126Z,99297.66
2022-11-16T07:24:54.855Z,99306.31
2022-11-16T07:27:24.990Z,99294.97
2022-11-16T07:29:55.048Z,99301.03
2022-11-16T07:32:40.400Z,99294.16
2022-11-16T07:35:10.086Z,99288.13
2022-11-16T07:37:38.030Z,99288.19
2022-11-16T07:40:05.877Z,99282.94
2022-11-16T07:42:32.539Z,99286.41
2022-11-16T07:45:28.742Z,99281.31
2022-11-16T07:48:04.669Z,99283.94
2022-11-16T07:50:51.148Z,99281.34
2022-11-16T07:53:21.122Z,99279.50
2022-11-16T07:55:53.993Z,99276.94
2022-11-16T07:58:21.899Z,99276.16
2022-11-16T08:00:49.368Z,99276.22
2022-11-16T08:03:24.616Z,99271.94
2022-11-16T08:05:57.972Z,99261.56
2022-11-16T08:08:26.937Z,99260.78
2022-11-16T08:10:59.205Z,99250.41
2022-11-16T08:13:26.221Z,99253.97
2022-11-16T08:15:52.861Z,99254.91
2022-11-16T08:18:23.128Z,99265.31
2022-11-16T08:20:50.989Z,99265.34
2022-11-16T08:23:19.887Z,99265.38
2022-11-16T08:25:49.012Z,99264.47
2022-11-16T08:28:15.637Z,99261.00
2022-11-16T08:30:42.815Z,99248.88
2022-11-16T08:33:11.984Z,99264.50
2022-11-16T08:35:38.648Z,99255.84
2022-11-16T08:38:05.744Z,99255.00
2022-11-16T08:40:33.459Z,99251.53
2022-11-16T08:43:00.002Z,99252.41
2022-11-16T08:45:27.491Z,99255.06
2022-11-16T08:48:03.433Z,99247.25
2022-11-16T08:50:33.483Z,99255.91
2022-11-16T08:53:11.082Z,99252.50
2022-11-16T08:55:37.652Z,99247.28
2022-11-16T08:58:04.287Z,99249.91
2022-11-16T09:00:31.357Z,99240.44
2022-11-16T09:03:00.707Z,99247.34
2022-11-16T09:05:29.377Z,99245.59
2022-11-16T09:07:56.135Z,99237.78
2022-11-16T09:10:26.031Z,99237.78
2022-11-16T09:12:56.183Z,99236.97
2022-11-16T09:15:24.942Z,99233.53
2022-11-16T09:17:54.867Z,99229.22
2022-11-16T09:20:23.913Z,99227.50
2022-11-16T09:22:50.507Z,99232.75
2022-11-16T09:25:19.089Z,99228.44
2022-11-16T09:27:46.671Z,99229.31
2022-11-16T09:30:13.732Z,99237.13
2022-11-16T09:32:42.802Z,99238.81
2022-11-16T09:35:14.012Z,99229.31
2022-11-16T09:37:43.068Z,99228.44
2022-11-16T09:40:12.099Z,99226.72
2022-11-16T09:42:44.675Z,99216.31
2022-11-16T09:45:16.702Z,99205.94
2022-11-16T09:47:45.549Z,99205.94
2022-11-16T09:50:17.872Z,99205.13
2022-11-16T09:52:45.235Z,99207.78
2022-11-16T09:55:35.246Z,99206.91
2022-11-16T09:58:02.284Z,99205.19
2022-11-16T10:00:28.794Z,99197.41
2022-11-16T10:02:58.766Z,99193.88
2022-11-16T10:05:25.591Z,99192.13
2022-11-16T10:07:55.348Z,99183.50
2022-11-16T10:10:34.965Z,99177.44
2022-11-16T10:13:19.873Z,99176.56
2022-11-16T10:15:57.528Z,99174.84
2022-11-16T10:18:29.797Z,99167.00
2022-11-16T10:21:15.997Z,99166.13
2022-11-16T10:24:01.521Z,99158.31
2022-11-16T10:26:43.307Z,99156.59
2022-11-16T10:29:10.469Z,99156.63
2022-11-16T10:31:42.322Z,99155.75
2022-11-16T10:34:08.861Z,99151.41
2022-11-16T10:36:37.776Z,99142.72
2022-11-16T10:39:10.803Z,99147.06
2022-11-16T10:41:38.305Z,99137.56
2022-11-16T10:44:11.262Z,99132.34
2022-11-16T10:46:39.997Z,99143.63
2022-11-16T10:49:18.407Z,99139.31
2022-11-16T10:51:47.461Z,99133.28
2022-11-16T10:54:16.914Z,99135.84
2022-11-16T10:56:49.771Z,99125.44
2022-11-16T10:59:18.512Z,99121.94
2022-11-16T11:01:54.132Z,99115.91
2022-11-16T11:04:20.916Z,99115.94
2022-11-16T11:06:48.853Z,99105.53
2022-11-16T11:09:16.631Z,99109.88
2022-11-16T11:12:01.942Z,99099.47
2022-11-16T11:14:32.554Z,99089.13
2022-11-16T11:17:10.579Z,99080.44
2022-11-16T11:19:37.175Z,99084.81
2022-11-16T11:22:04.213Z,99080.50
2022-11-16T11:24:48.266Z,99083.13
2022-11-16T11:27:14.799Z,99078.75
2022-11-16T11:29:43.749Z,99077.94
2022-11-16T11:32:15.963Z,99077.06
2022-11-16T11:34:47.491Z,99078.78
2022-11-16T11:37:17.619Z,99074.44
2022-11-16T11:39:44.300Z,99069.19
2022-11-16T11:42:13.346Z,99063.13
2022-11-16T11:44:43.528Z,99067.44
2022-11-16T11:47:56.713Z,99060.47
2022-11-16T11:50:16.654Z,99056.16
2022-11-16T11:53:02.124Z,99050.06
2022-11-16T11:55:28.717Z,99050.09
2022-11-16T11:57:55.363Z,99044.06
2022-11-16T12:00:22.326Z,99048.41
2022-11-16T12:03:04.231Z,99049.25
2022-11-16T12:05:36.786Z,99052.72
2022-11-16T12:08:17.196Z,99051.84
2022-11-16T12:10:55.288Z,99053.59
2022-11-16T12:13:42.540Z,99049.25
2022-11-16T12:16:24.257Z,99053.59
2022-11-16T12:18:53.341Z,99044.06
2022-11-16T12:21:25.923Z,99048.38
2022-11-16T12:24:07.104Z,99042.31
2022-11-16T12:26:39.074Z,99048.38
2022-11-16T12:29:11.705Z,99049.25
2022-11-16T12:31:43.889Z,99039.72
2022-11-16T12:34:26.347Z,99039.69
2022-11-16T12:37:09.555Z,99038.78
2022-11-16T12:39:41.891Z,99037.94
2022-11-16T12:42:08.389Z,99034.47
2022-11-16T12:44:37.390Z,99034.44
2022-11-16T12:47:35.537Z,99026.63
2022-11-16T12:50:11.505Z,99024.03
2022-11-16T12:52:41.027Z,99019.72
2022-11-16T12:55:25.868Z,99014.53
2022-11-16T12:58:12.277Z,99013.66
2022-11-16T13:00:50.554Z,99015.38
2022-11-16T13:03:17.355Z,99014.53
2022-11-16T13:05:49.188Z,99014.53
2022-11-16T13:08:23.113Z,99022.31
2022-11-16T13:10:53.060Z,99016.25
2022-11-16T13:13:39.362Z,99014.53
2022-11-16T13:16:06.694Z,99020.59
2022-11-16T13:18:33.570Z,99022.31
2022-11-16T13:21:02.298Z,99012.72
2022-11-16T13:23:32.020Z,99018.81
2022-11-16T13:26:10.161Z,99017.09
2022-11-16T13:28:38.641Z,99017.13
2022-11-16T13:31:15.271Z,99004.97
2022-11-16T13:33:50.665Z,99003.25
2022-11-16T13:36:45.711Z,99005.00
2022-11-16T13:39:17.090Z,99009.25
2022-11-16T13:41:49.954Z,99018.75
2022-11-16T13:44:17.754Z,99010.03
2022-11-16T13:46:55.878Z,99010.88
2022-11-16T13:49:33.248Z,99003.13
2022-11-16T13:52:11.601Z,99005.72
2022-11-16T13:54:48.342Z,99003.97
2022-11-16T13:57:22.757Z,99002.22
2022-11-16T13:59:56.224Z,99003.94
2022-11-16T14:02:28.725Z,99003.06
2022-11-16T14:04:55.964Z,98998.69
2022-11-16T14:07:55.111Z,98992.63
2022-11-16T14:10:46.273Z,98998.66
2022-11-16T14:13:33.567Z,98987.31
2022-11-16T14:16:32.199Z,98996.91
2022-11-16T14:19:01.958Z,98987.34
2022-11-16T14:21:48.654Z,98988.22
2022-11-16T14:24:37.502Z,98985.66
2022-11-16T14:27:09.695Z,98980.41
2022-11-16T14:29:39.382Z,98983.88
2022-11-16T14:32:08.703Z,98978.69
2022-11-16T14:34:41.404Z,98975.22
2022-11-16T14:37:31.029Z,98976.06
2022-11-16T14:40:07.869Z,98975.16
2022-11-16T14:43:09.540Z,98975.13
2022-11-16T14:45:34.106Z,98979.41
2022-11-16T14:48:03.679Z,98981.16
2022-11-16T14:50:36.658Z,98978.63
2022-11-16T14:53:11.494Z,98976.03
2022-11-16T14:55:45.027Z,98972.53
2022-11-16T14:58:23.616Z,98968.19
2022-11-16T15:00:53.771Z,98963.84
2022-11-16T15:03:21.891Z,98961.28
2022-11-16T15:05:50.492Z,98963.03
2022-11-16T15:08:21.577Z,98954.38
2022-11-16T15:10:53.479Z,98953.44
2022-11-16T15:13:22.923Z,98949.09
2022-11-16T15:15:50.414Z,98950.00
2022-11-16T15:18:18.454Z,98949.16
2022-11-16T15:20:50.257Z,98947.41
2022-11-16T15:23:16.872Z,98952.59
2022-11-16T15:25:45.840Z,98944.81
2022-11-16T15:28:20.960Z,98944.78
2022-11-16T15:30:51.158Z,98947.31
2022-11-16T15:33:18.341Z,98943.81
2022-11-16T15:35:47.365Z,98945.56
2022-11-16T15:38:17.996Z,98938.63
2022-11-16T15:40:50.869Z,98940.38
2022-11-16T15:43:29.641Z,98946.50
2022-11-16T15:45:56.180Z,98941.31
2022-11-16T15:48:25.581Z,98942.22
2022-11-16T15:51:05.289Z,98940.44
2022-11-16T15:53:36.580Z,98945.66
2022-11-16T15:56:04.077Z,98945.59
2022-11-16T15:58:30.646Z,98945.59
2022-11-16T16:00:58.499Z,98947.28
2022-11-16T16:03:27.883Z,98940.34
2022-11-16T16:05:57.304Z,98941.22
2022-11-16T16:08:33.824Z,98933.47
2022-11-16T16:11:06.575Z,98929.06
2022-11-16T16:13:34.660Z,98928.13
2022-11-16T16:16:22.097Z,98927.13
2022-11-16T16:18:49.641Z,98928.84
2022-11-16T16:21:16.372Z,98931.47
2022-11-16T16:23:47.219Z,98927.22
2022-11-16T16:26:16.635Z,98931.53
2022-11-16T16:28:46.633Z,98929.84
2022-11-16T16:31:13.245Z,98931.63
2022-11-16T16:33:39.976Z,98936.91
2022-11-16T16:36:11.480Z,98933.47
2022-11-16T16:38:40.268Z,98935.22
2022-11-16T16:41:07.097Z,98934.31
2022-11-16T16:43:36.378Z,98927.44
2022-11-16T16:46:03.577Z,98925.69
2022-11-16T16:48:30.542Z,98927.44
2022-11-16T16:50:57.177Z,98924.91
2022-11-16T16:53:24.591Z,98931.75
2022-11-16T16:55:56.047Z,98921.34
2022-11-16T16:58:24.972Z,98924.81
2022-11-16T17:00:54.598Z,98927.41
2022-11-16T17:03:23.486Z,98918.75
2022-11-16T17:05:50.641Z,98926.56
2022-11-16T17:08:17.139Z,98923.06
2022-11-16T17:10:43.705Z,98919.63
2022-11-16T17:13:10.376Z,98913.53
2022-11-16T17:15:39.439Z,98913.53
2022-11-16T17:18:05.978Z,98917.81
2022-11-16T17:20:32.607Z,98911.75
2022-11-16T17:23:01.443Z,98909.97
2022-11-16T17:25:28.063Z,98912.59
2022-11-16T17:27:54.584Z,98913.53
2022-11-16T17:30:21.198Z,98917.94
2022-11-16T17:32:47.716Z,98916.22
2022-11-16T17:35:14.360Z,98912.75
2022-11-16T17:37:43.441Z,98907.56
2022-11-16T17:40:10.493Z,98911.00
2022-11-16T17:42:37.123Z,98908.41
2022-11-16T17:45:03.868Z,98907.53
2022-11-16T17:47:31.392Z,98898.00
2022-11-16T17:49:57.993Z,98903.09
2022-11-16T17:52:24.817Z,98900.53
2022-11-16T17:54:51.418Z,98903.97
2022-11-16T17:57:19.989Z,98909.09
2022-11-16T17:59:47.775Z,98902.97
2022-11-16T18:02:14.249Z,98897.75
2022-11-16T18:04:40.973Z,98892.56
2022-11-16T18:07:09.990Z,98896.88
2022-11-16T18:09:39.115Z,98897.78
2022-11-16T18:12:05.686Z,98885.59
2022-11-16T18:14:34.724Z,98881.31
2022-11-16T18:17:01.855Z,98889.13
2022-11-16T18:19:30.766Z,98892.56
2022-11-16T18:21:57.651Z,98884.84
2022-11-16T18:24:25.326Z,98885.75
2022-11-16T18:26:54.522Z,98885.75
2022-11-16T18:29:23.244Z,98885.75
2022-11-16T18:31:51.705Z,98886.59
2022-11-16T18:34:19.411Z,98888.34
2022-11-16T18:36:48.882Z,98890.16
2022-11-16T18:39:15.430Z,98885.75
2022-11-16T18:41:53.434Z,98886.66
2022-11-16T18:44:28.147Z,98883.22
2022-11-16T18:46:54.698Z,98886.66
2022-11-16T18:49:21.210Z,98884.06
2022-11-16T18:51:50.606Z,98889.28
2022-11-16T18:54:17.106Z,98888.41
2022-11-16T18:56:44.005Z,98888.44
2022-11-16T18:59:10.630Z,98890.16
2022-11-16T19:01:39.668Z,98891.81
2022-11-16T19:04:07.600Z,98884.00
2022-11-16T19:06:34.227Z,98891.81
2022-11-16T19:09:01.120Z,98888.41
2022-11-16T19:11:28.573Z,98891.00
2022-11-16T19:13:56.394Z,98890.09
2022-11-16T19:16:23.754Z,98880.63
2022-11-16T19:18:50.406Z,98884.97
2022-11-16T19:21:22.003Z,98875.47
2022-11-16T19:23:52.282Z,98878.94
2022-11-16T19:26:23.065Z,98883.28
2022-11-16T19:28:54.679Z,98880.66
2022-11-16T19:31:23.792Z,98878.06
2022-11-16T19:33:56.154Z,98874.59
2022-11-16T19:36:23.006Z,98866.84
2022-11-16T19:38:49.932Z,98868.56
2022-11-16T19:41:23.427Z,98866.00
2022-11-16T19:43:52.475Z,98859.94
2022-11-16T19:46:23.240Z,98866.00
2022-11-16T19:48:50.209Z,98860.81
2022-11-16T19:51:18.861Z,98864.28
2022-11-16T19:53:45.649Z,98863.41
2022-11-16T19:56:18.121Z,98864.25
2022-11-16T19:58:44.887Z,98862.53
2022-11-16T20:01:21.573Z,98868.56
2022-11-16T20:03:48.682Z,98861.56
2022-11-16T20:06:17.720Z,98863.31
2022-11-16T20:08:51.465Z,98858.97
2022-11-16T20:11:21.165Z,98865.03
2022-11-16T20:13:48.299Z,98872.81
2022-11-16T20:16:15.035Z,98867.63
2022-11-16T20:18:42.121Z,98874.53
2022-11-16T20:21:09.324Z,98867.56
2022-11-16T20:23:37.542Z,98875.34
2022-11-16T20:26:10.127Z,98869.31
2022-11-16T20:28:40.041Z,98860.63
2022-11-16T20:31:10.152Z,98867.56
2022-11-16T20:33:45.819Z,98870.09
2022-11-16T20:36:13.347Z,98864.03
2022-11-16T20:38:40.134Z,98864.94
2022-11-16T20:41:12.224Z,98849.41
2022-11-16T20:43:39.380Z,98847.72
2022-11-16T20:46:09.696Z,98845.13
2022-11-16T20:48:36.580Z,98841.69
2022-11-16T20:51:06.567Z,98842.53
2022-11-16T20:53:35.799Z,98839.06
2022-11-16T20:56:03.736Z,98842.56
2022-11-16T20:58:30.943Z,98844.31
2022-11-16T21:01:08.028Z,98853.00
2022-11-16T21:03:35.310Z,98852.97
2022-11-16T21:06:02.567Z,98851.19
2022-11-16T21:08:30.096Z,98849.44
2022-11-16T21:11:02.899Z,98847.72
2022-11-16T21:13:51.027Z,98846.88
2022-11-16T21:16:20.037Z,98838.16
2022-11-16T21:18:46.838Z,98840.75
2022-11-16T21:21:21.477Z,98845.06
2022-11-16T21:23:54.089Z,98842.47
2022-11-16T21:26:24.621Z,98839.91
2022-11-16T21:28:51.427Z,98833.88
2022-11-16T21:31:19.198Z,98827.81
2022-11-16T21:33:48.460Z,98829.41
2022-11-16T21:36:16.243Z,98829.38
2022-11-16T21:38:43.256Z,98817.25
2022-11-16T21:41:12.698Z,98818.97
2022-11-16T21:43:41.113Z,98807.69
2022-11-16T21:46:13.535Z,98812.88
2022-11-16T21:48:40.299Z,98807.69
2022-11-16T21:51:09.702Z,98805.94
2022-11-16T21:53:39.176Z,98796.44
2022-11-16T21:56:10.242Z,98795.63
2022-11-16T21:58:40.553Z,98786.09
2022-11-16T22:01:10.084Z,98783.44
2022-11-16T22:03:37.533Z,98789.50
2022-11-16T22:06:23.626Z,98785.19
2022-11-16T22:08:54.842Z,98786.91
2022-11-16T22:11:22.256Z,98793.84
2022-11-16T22:13:49.444Z,98792.94
2022-11-16T22:16:23.487Z,98792.97
2022-11-16T22:18:50.298Z,98787.75
2022-11-16T22:21:19.560Z,98789.50
2022-11-16T22:23:48.457Z,98786.03
2022-11-16T22:26:15.337Z,98793.88
2022-11-16T22:28:44.219Z,98805.13
2022-11-16T22:31:16.311Z,98806.81
2022-11-16T22:33:45.906Z,98825.88
2022-11-16T22:36:15.073Z,98822.31
2022-11-16T22:38:41.975Z,98816.25
2022-11-16T22:41:09.124Z,98812.84
2022-11-16T22:43:39.099Z,98817.22
2022-11-16T22:46:06.144Z,98807.69
2022-11-16T22:48:33.217Z,98810.28
2022-11-16T22:51:22.821Z,98799.88
2022-11-16T22:53:56.010Z,98799.91
2022-11-16T22:56:22.849Z,98798.19
2022-11-16T22:58:49.338Z,98799.06
2022-11-16T23:01:15.817Z,98805.09
2022-11-16T23:03:42.562Z,98800.75
2022-11-16T23:06:09.156Z,98801.59
2022-11-16T23:08:35.786Z,98799.75
2022-11-16T23:11:20.895Z,98799.78
2022-11-16T23:14:06.342Z,98799.81
2022-11-16T23:16:33.207Z,98801.56
2022-11-16T23:19:00.225Z,98785.13
2022-11-16T23:21:45.508Z,98785.16
2022-11-16T23:24:31.156Z,98778.25
2022-11-16T23:27:18.774Z,98787.75
2022-11-16T23:29:49.907Z,98794.69
2022-11-16T23:32:16.444Z,98792.97
2022-11-16T23:34:42.939Z,98790.34
2022-11-16T23:37:11.837Z,98797.22
2022-11-16T23:39:38.353Z,98790.34
2022-11-16T23:42:26.745Z,98797.22
2022-11-16T23:44:53.253Z,98804.94
2022-11-16T23:47:19.748Z,98800.56
2022-11-16T23:49:51.656Z,98795.19
2022-11-16T23:52:20.698Z,98797.81
2022-11-16T23:54:49.598Z,98789.19
2022-11-16T23:57:18.220Z,98790.97
2022-11-16T23:59:44.805Z,98790.91
